sensor_id;sensor_type;location;lat;lon;timestamp;pressure;altitude;pressure_sealevel;temperature;humidity
74310;BME280;62722;51.142;17.052;2022-11-11T00:02:14;101844.91;;;7.65;89.06
74310;BME280;62722;51.142;17.052;2022-11-11T00:04:41;101838.28;;;7.54;88.70
74310;BME280;62722;51.142;17.052;2022-11-11T00:07:10;101818.47;;;7.42;88.80
74310;BME280;62722;51.142;17.052;2022-11-11T00:09:37;101830.72;;;7.42;89.01
74310;BME280;62722;51.142;17.052;2022-11-11T00:12:05;101818.59;;;7.36;89.55
74310;BME280;62722;51.142;17.052;2022-11-11T00:14:32;101825.78;;;7.31;89.62
74310;BME280;62722;51.142;17.052;2022-11-11T00:16:59;101823.34;;;7.23;89.63
74310;BME280;62722;51.142;17.052;2022-11-11T00:19:44;101810.31;;;7.20;90.16
74310;BME280;62722;51.142;17.052;2022-11-11T00:22:29;101811.31;;;7.15;90.12
74310;BME280;62722;51.142;17.052;2022-11-11T00:25:15;101816.66;;;7.12;91.06
74310;BME280;62722;51.142;17.052;2022-11-11T00:27:43;101817.72;;;7.05;90.20
74310;BME280;62722;51.142;17.052;2022-11-11T00:30:10;101811.63;;;7.03;90.53
74310;BME280;62722;51.142;17.052;2022-11-11T00:32:38;101823.06;;;7.02;90.49
74310;BME280;62722;51.142;17.052;2022-11-11T00:35:05;101818.72;;;7.01;90.47
74310;BME280;62722;51.142;17.052;2022-11-11T00:37:51;101813.63;;;6.95;90.93
74310;BME280;62722;51.142;17.052;2022-11-11T00:40:18;101815.44;;;6.91;91.17
74310;BME280;62722;51.142;17.052;2022-11-11T00:42:45;101816.38;;;6.89;91.31
74310;BME280;62722;51.142;17.052;2022-11-11T00:45:12;101816.47;;;6.85;91.31
74310;BME280;62722;51.142;17.052;2022-11-11T00:47:39;101818.34;;;6.80;91.89
74310;BME280;62722;51.142;17.052;2022-11-11T00:50:25;101816.69;;;6.76;92.60
74310;BME280;62722;51.142;17.052;2022-11-11T00:53:13;101809.59;;;6.81;93.37
74310;BME280;62722;51.142;17.052;2022-11-11T00:55:41;101805.91;;;6.89;94.03
74310;BME280;62722;51.142;17.052;2022-11-11T00:58:08;101810.16;;;6.93;93.62
74310;BME280;62722;51.142;17.052;2022-11-11T01:00:35;101817.94;;;6.96;93.53
74310;BME280;62722;51.142;17.052;2022-11-11T01:03:03;101824.66;;;7.07;94.14
74310;BME280;62722;51.142;17.052;2022-11-11T01:05:30;101823.66;;;7.11;93.82
74310;BME280;62722;51.142;17.052;2022-11-11T01:07:57;101821.84;;;7.13;93.17
74310;BME280;62722;51.142;17.052;2022-11-11T01:10:26;101819.38;;;7.09;92.90
74310;BME280;62722;51.142;17.052;2022-11-11T01:13:13;101820.19;;;7.11;93.73
74310;BME280;62722;51.142;17.052;2022-11-11T01:15:42;101820.16;;;7.12;93.31
74310;BME280;62722;51.142;17.052;2022-11-11T01:18:10;101828.63;;;7.22;93.42
74310;BME280;62722;51.142;17.052;2022-11-11T01:20:38;101828.47;;;7.28;93.23
74310;BME280;62722;51.142;17.052;2022-11-11T01:23:07;101827.63;;;7.27;92.54
74310;BME280;62722;51.142;17.052;2022-11-11T01:25:37;101829.47;;;7.24;92.53
74310;BME280;62722;51.142;17.052;2022-11-11T01:28:06;101833.09;;;7.20;92.75
74310;BME280;62722;51.142;17.052;2022-11-11T01:30:34;101834.94;;;7.15;92.91
74310;BME280;62722;51.142;17.052;2022-11-11T01:33:02;101826.28;;;7.11;93.15
74310;BME280;62722;51.142;17.052;2022-11-11T01:35:30;101829.00;;;7.08;93.30
74310;BME280;62722;51.142;17.052;2022-11-11T01:37:58;101817.72;;;7.05;93.06
74310;BME280;62722;51.142;17.052;2022-11-11T01:40:25;101816.09;;;7.01;93.34
74310;BME280;62722;51.142;17.052;2022-11-11T01:43:22;101819.59;;;7.00;93.22
74310;BME280;62722;51.142;17.052;2022-11-11T01:45:53;101810.94;;;6.96;93.31
74310;BME280;62722;51.142;17.052;2022-11-11T01:48:28;101809.16;;;6.98;93.40
74310;BME280;62722;51.142;17.052;2022-11-11T01:51:17;101798.72;;;6.95;93.40
74310;BME280;62722;51.142;17.052;2022-11-11T01:53:50;101798.69;;;6.97;93.40
74310;BME280;62722;51.142;17.052;2022-11-11T01:56:19;101797.78;;;6.98;93.67
74310;BME280;62722;51.142;17.052;2022-11-11T01:58:49;101796.06;;;6.97;93.26
74310;BME280;62722;51.142;17.052;2022-11-11T02:01:17;101790.91;;;6.94;93.24
74310;BME280;62722;51.142;17.052;2022-11-11T02:03:46;101803.13;;;6.95;93.25
74310;BME280;62722;51.142;17.052;2022-11-11T02:06:30;101805.66;;;6.98;93.92
74310;BME280;62722;51.142;17.052;2022-11-11T02:08:58;101797.88;;;6.95;93.38
74310;BME280;62722;51.142;17.052;2022-11-11T02:11:26;101798.78;;;6.94;93.26
74310;BME280;62722;51.142;17.052;2022-11-11T02:14:13;101790.16;;;6.89;93.19
74310;BME280;62722;51.142;17.052;2022-11-11T02:16:57;101798.88;;;6.89;93.35
74310;BME280;62722;51.142;17.052;2022-11-11T02:19:30;101793.63;;;6.89;93.52
74310;BME280;62722;51.142;17.052;2022-11-11T02:22:03;101800.66;;;6.89;93.42
74310;BME280;62722;51.142;17.052;2022-11-11T02:24:36;101798.78;;;6.94;93.69
74310;BME280;62722;51.142;17.052;2022-11-11T02:27:05;101808.28;;;6.98;93.58
74310;BME280;62722;51.142;17.052;2022-11-11T02:29:35;101811.69;;;7.01;93.66
74310;BME280;62722;51.142;17.052;2022-11-11T02:32:03;101816.88;;;7.03;93.22
74310;BME280;62722;51.142;17.052;2022-11-11T02:34:30;101813.34;;;7.05;93.67
74310;BME280;62722;51.142;17.052;2022-11-11T02:36:58;101821.91;;;7.12;92.85
74310;BME280;62722;51.142;17.052;2022-11-11T02:39:27;101820.09;;;7.14;92.53
74310;BME280;62722;51.142;17.052;2022-11-11T02:41:56;101819.28;;;7.12;92.41
74310;BME280;62722;51.142;17.052;2022-11-11T02:44:24;101817.75;;;7.03;92.26
74310;BME280;62722;51.142;17.052;2022-11-11T02:46:51;101815.38;;;6.94;92.36
74310;BME280;62722;51.142;17.052;2022-11-11T02:49:18;101807.72;;;6.87;92.94
74310;BME280;62722;51.142;17.052;2022-11-11T02:51:45;101804.34;;;6.81;92.76
74310;BME280;62722;51.142;17.052;2022-11-11T02:54:13;101809.75;;;6.75;93.16
74310;BME280;62722;51.142;17.052;2022-11-11T02:56:40;101802.84;;;6.71;92.86
74310;BME280;62722;51.142;17.052;2022-11-11T02:59:26;101807.31;;;6.68;93.15
74310;BME280;62722;51.142;17.052;2022-11-11T03:01:53;101797.75;;;6.65;92.92
74310;BME280;62722;51.142;17.052;2022-11-11T03:04:20;101798.59;;;6.66;92.87
74310;BME280;62722;51.142;17.052;2022-11-11T03:06:47;101798.75;;;6.61;93.23
74310;BME280;62722;51.142;17.052;2022-11-11T03:09:14;101807.34;;;6.66;93.54
74310;BME280;62722;51.142;17.052;2022-11-11T03:11:42;101811.44;;;6.76;92.55
74310;BME280;62722;51.142;17.052;2022-11-11T03:14:10;101812.28;;;6.78;92.39
74310;BME280;62722;51.142;17.052;2022-11-11T03:16:39;101811.25;;;6.84;90.61
74310;BME280;62722;51.142;17.052;2022-11-11T03:19:24;101818.28;;;6.83;89.87
74310;BME280;62722;51.142;17.052;2022-11-11T03:21:51;101808.59;;;6.85;89.04
74310;BME280;62722;51.142;17.052;2022-11-11T03:24:20;101805.28;;;6.79;89.30
74310;BME280;62722;51.142;17.052;2022-11-11T03:26:47;101813.19;;;6.77;90.16
74310;BME280;62722;51.142;17.052;2022-11-11T03:29:14;101819.31;;;6.76;90.08
74310;BME280;62722;51.142;17.052;2022-11-11T03:31:43;101813.25;;;6.74;90.15
74310;BME280;62722;51.142;17.052;2022-11-11T03:34:10;101820.28;;;6.74;90.36
74310;BME280;62722;51.142;17.052;2022-11-11T03:36:46;101834.34;;;6.71;90.46
74310;BME280;62722;51.142;17.052;2022-11-11T03:39:31;101842.09;;;6.76;90.23
74310;BME280;62722;51.142;17.052;2022-11-11T03:41:58;101833.28;;;6.78;90.46
74310;BME280;62722;51.142;17.052;2022-11-11T03:44:25;101828.94;;;6.77;90.08
74310;BME280;62722;51.142;17.052;2022-11-11T03:46:54;101825.34;;;6.80;89.47
74310;BME280;62722;51.142;17.052;2022-11-11T03:49:22;101829.72;;;6.81;89.70
74310;BME280;62722;51.142;17.052;2022-11-11T03:51:49;101834.97;;;6.81;89.49
74310;BME280;62722;51.142;17.052;2022-11-11T03:54:16;101843.69;;;6.81;88.36
74310;BME280;62722;51.142;17.052;2022-11-11T03:56:43;101835.94;;;6.77;88.87
74310;BME280;62722;51.142;17.052;2022-11-11T03:59:10;101844.59;;;6.80;89.44
74310;BME280;62722;51.142;17.052;2022-11-11T04:01:37;101855.13;;;6.79;89.02
74310;BME280;62722;51.142;17.052;2022-11-11T04:04:23;101852.53;;;6.77;89.05
74310;BME280;62722;51.142;17.052;2022-11-11T04:07:08;101861.44;;;6.72;89.87
74310;BME280;62722;51.142;17.052;2022-11-11T04:09:53;101862.34;;;6.69;89.50
74310;BME280;62722;51.142;17.052;2022-11-11T04:12:39;101859.06;;;6.61;89.49
74310;BME280;62722;51.142;17.052;2022-11-11T04:15:21;101871.34;;;6.59;89.96
74310;BME280;62722;51.142;17.052;2022-11-11T04:18:06;101867.91;;;6.57;90.30
74310;BME280;62722;51.142;17.052;2022-11-11T04:20:34;101869.78;;;6.51;89.94
74310;BME280;62722;51.142;17.052;2022-11-11T04:23:21;101862.19;;;6.40;90.18
74310;BME280;62722;51.142;17.052;2022-11-11T04:25:49;101852.91;;;6.25;90.58
74310;BME280;62722;51.142;17.052;2022-11-11T04:28:16;101864.53;;;6.14;91.17
74310;BME280;62722;51.142;17.052;2022-11-11T04:31:00;101867.34;;;6.05;91.74
74310;BME280;62722;51.142;17.052;2022-11-11T04:33:28;101872.59;;;6.05;91.67
74310;BME280;62722;51.142;17.052;2022-11-11T04:35:55;101864.69;;;6.06;92.09
74310;BME280;62722;51.142;17.052;2022-11-11T04:38:22;101857.75;;;6.05;91.65
74310;BME280;62722;51.142;17.052;2022-11-11T04:41:08;101862.06;;;6.06;91.88
74310;BME280;62722;51.142;17.052;2022-11-11T04:43:37;101863.00;;;6.04;91.34
74310;BME280;62722;51.142;17.052;2022-11-11T04:46:18;101871.00;;;5.98;91.77
74310;BME280;62722;51.142;17.052;2022-11-11T04:48:46;101865.69;;;6.01;91.50
74310;BME280;62722;51.142;17.052;2022-11-11T04:51:14;101869.94;;;6.06;91.98
74310;BME280;62722;51.142;17.052;2022-11-11T04:53:41;101874.34;;;6.04;91.33
74310;BME280;62722;51.142;17.052;2022-11-11T04:56:08;101871.72;;;6.06;91.83
74310;BME280;62722;51.142;17.052;2022-11-11T04:58:52;101867.34;;;6.05;91.04
74310;BME280;62722;51.142;17.052;2022-11-11T05:01:34;101858.59;;;6.06;91.27
74310;BME280;62722;51.142;17.052;2022-11-11T05:04:18;101851.72;;;6.02;91.42
74310;BME280;62722;51.142;17.052;2022-11-11T05:06:46;101847.44;;;5.96;91.04
74310;BME280;62722;51.142;17.052;2022-11-11T05:09:31;101840.59;;;5.89;91.97
74310;BME280;62722;51.142;17.052;2022-11-11T05:11:58;101846.78;;;5.86;92.30
74310;BME280;62722;51.142;17.052;2022-11-11T05:14:25;101831.09;;;5.83;91.99
74310;BME280;62722;51.142;17.052;2022-11-11T05:17:10;101845.09;;;5.82;92.18
74310;BME280;62722;51.142;17.052;2022-11-11T05:19:54;101839.91;;;5.79;92.34
74310;BME280;62722;51.142;17.052;2022-11-11T05:22:41;101845.03;;;5.85;92.76
74310;BME280;62722;51.142;17.052;2022-11-11T05:25:09;101847.63;;;5.85;93.20
74310;BME280;62722;51.142;17.052;2022-11-11T05:27:51;101842.38;;;5.88;92.93
74310;BME280;62722;51.142;17.052;2022-11-11T05:30:20;101841.41;;;5.93;92.77
74310;BME280;62722;51.142;17.052;2022-11-11T05:32:47;101849.25;;;5.93;93.05
74310;BME280;62722;51.142;17.052;2022-11-11T05:35:15;101851.81;;;5.96;93.32
74310;BME280;62722;51.142;17.052;2022-11-11T05:37:44;101850.03;;;5.98;93.56
74310;BME280;62722;51.142;17.052;2022-11-11T05:40:32;101856.88;;;6.05;93.20
74310;BME280;62722;51.142;17.052;2022-11-11T05:42:59;101838.63;;;5.99;93.23
74310;BME280;62722;51.142;17.052;2022-11-11T05:45:27;101857.75;;;6.05;93.71
74310;BME280;62722;51.142;17.052;2022-11-11T05:47:54;101858.53;;;6.09;93.81
74310;BME280;62722;51.142;17.052;2022-11-11T05:50:21;101866.31;;;6.13;93.76
74310;BME280;62722;51.142;17.052;2022-11-11T05:52:50;101857.56;;;6.13;93.65
74310;BME280;62722;51.142;17.052;2022-11-11T05:55:17;101856.66;;;6.14;93.49
74310;BME280;62722;51.142;17.052;2022-11-11T05:57:44;101861.91;;;6.14;93.68
74310;BME280;62722;51.142;17.052;2022-11-11T06:00:12;101871.41;;;6.19;93.86
74310;BME280;62722;51.142;17.052;2022-11-11T06:02:39;101872.22;;;6.21;94.19
74310;BME280;62722;51.142;17.052;2022-11-11T06:05:07;101874.81;;;6.23;94.08
74310;BME280;62722;51.142;17.052;2022-11-11T06:07:37;101883.47;;;6.26;94.37
74310;BME280;62722;51.142;17.052;2022-11-11T06:10:08;101890.41;;;6.29;94.21
74310;BME280;62722;51.142;17.052;2022-11-11T06:12:49;101902.56;;;6.33;94.78
74310;BME280;62722;51.142;17.052;2022-11-11T06:15:30;101901.59;;;6.37;94.24
74310;BME280;62722;51.142;17.052;2022-11-11T06:17:58;101898.00;;;6.41;93.98
74310;BME280;62722;51.142;17.052;2022-11-11T06:20:26;101892.69;;;6.44;94.12
74310;BME280;62722;51.142;17.052;2022-11-11T06:22:53;101888.22;;;6.48;94.25
74310;BME280;62722;51.142;17.052;2022-11-11T06:25:25;101890.03;;;6.46;93.84
74310;BME280;62722;51.142;17.052;2022-11-11T06:28:10;101890.84;;;6.49;94.38
74310;BME280;62722;51.142;17.052;2022-11-11T06:30:37;101889.03;;;6.51;94.37
74310;BME280;62722;51.142;17.052;2022-11-11T06:33:05;101888.91;;;6.57;94.39
74310;BME280;62722;51.142;17.052;2022-11-11T06:35:34;101894.81;;;6.65;94.80
74310;BME280;62722;51.142;17.052;2022-11-11T06:38:02;101897.31;;;6.71;94.80
74310;BME280;62722;51.142;17.052;2022-11-11T06:40:31;101891.81;;;6.80;94.70
74310;BME280;62722;51.142;17.052;2022-11-11T06:42:59;101889.00;;;6.90;94.34
74310;BME280;62722;51.142;17.052;2022-11-11T06:45:27;101900.16;;;6.98;94.56
74310;BME280;62722;51.142;17.052;2022-11-11T06:47:54;101897.38;;;7.04;94.24
74310;BME280;62722;51.142;17.052;2022-11-11T06:50:22;101898.13;;;7.09;94.22
74310;BME280;62722;51.142;17.052;2022-11-11T06:52:49;101905.81;;;7.16;93.93
74310;BME280;62722;51.142;17.052;2022-11-11T06:55:16;101915.25;;;7.23;93.58
74310;BME280;62722;51.142;17.052;2022-11-11T06:57:45;101915.94;;;7.31;92.84
74310;BME280;62722;51.142;17.052;2022-11-11T07:00:13;101906.13;;;7.38;92.55
74310;BME280;62722;51.142;17.052;2022-11-11T07:02:40;101899.88;;;7.42;92.62
74310;BME280;62722;51.142;17.052;2022-11-11T07:05:08;101887.47;;;7.47;92.60
74310;BME280;62722;51.142;17.052;2022-11-11T07:07:35;101888.31;;;7.49;92.30
74310;BME280;62722;51.142;17.052;2022-11-11T07:10:03;101887.34;;;7.52;91.90
74310;BME280;62722;51.142;17.052;2022-11-11T07:12:31;101881.03;;;7.59;91.57
74310;BME280;62722;51.142;17.052;2022-11-11T07:15:00;101880.03;;;7.63;91.75
74310;BME280;62722;51.142;17.052;2022-11-11T07:17:27;101887.72;;;7.70;90.96
74310;BME280;62722;51.142;17.052;2022-11-11T07:19:54;101885.75;;;7.78;90.41
74310;BME280;62722;51.142;17.052;2022-11-11T07:22:21;101888.09;;;7.88;90.01
74310;BME280;62722;51.142;17.052;2022-11-11T07:24:49;101890.47;;;7.97;89.45
74310;BME280;62722;51.142;17.052;2022-11-11T07:27:16;101890.19;;;8.06;88.59
74310;BME280;62722;51.142;17.052;2022-11-11T07:29:43;101898.78;;;8.12;88.46
74310;BME280;62722;51.142;17.052;2022-11-11T07:32:11;101902.06;;;8.19;87.55
74310;BME280;62722;51.142;17.052;2022-11-11T07:34:39;101897.50;;;8.25;87.72
74310;BME280;62722;51.142;17.052;2022-11-11T07:37:06;101882.50;;;8.29;87.26
74310;BME280;62722;51.142;17.052;2022-11-11T07:39:34;101887.63;;;8.34;87.77
74310;BME280;62722;51.142;17.052;2022-11-11T07:42:01;101893.66;;;8.37;87.83
74310;BME280;62722;51.142;17.052;2022-11-11T07:44:28;101894.47;;;8.39;88.47
74310;BME280;62722;51.142;17.052;2022-11-11T07:46:55;101892.75;;;8.38;88.46
74310;BME280;62722;51.142;17.052;2022-11-11T07:49:23;101898.91;;;8.39;88.29
74310;BME280;62722;51.142;17.052;2022-11-11T07:51:51;101894.47;;;8.39;89.23
74310;BME280;62722;51.142;17.052;2022-11-11T07:54:18;101900.59;;;8.40;88.04
74310;BME280;62722;51.142;17.052;2022-11-11T07:56:45;101898.81;;;8.40;87.70
74310;BME280;62722;51.142;17.052;2022-11-11T07:59:12;101910.09;;;8.45;87.67
74310;BME280;62722;51.142;17.052;2022-11-11T08:01:39;101914.38;;;8.48;87.62
74310;BME280;62722;51.142;17.052;2022-11-11T08:04:07;101911.66;;;8.51;87.23
74310;BME280;62722;51.142;17.052;2022-11-11T08:06:35;101918.59;;;8.53;87.20
74310;BME280;62722;51.142;17.052;2022-11-11T08:09:02;101911.50;;;8.55;86.96
74310;BME280;62722;51.142;17.052;2022-11-11T08:11:30;101908.78;;;8.58;86.61
74310;BME280;62722;51.142;17.052;2022-11-11T08:14:14;101904.34;;;8.60;85.73
74310;BME280;62722;51.142;17.052;2022-11-11T08:16:41;101920.91;;;8.64;86.05
74310;BME280;62722;51.142;17.052;2022-11-11T08:19:08;101912.94;;;8.65;85.01
74310;BME280;62722;51.142;17.052;2022-11-11T08:21:37;101905.78;;;8.70;85.14
74310;BME280;62722;51.142;17.052;2022-11-11T08:24:05;101911.03;;;8.70;85.62
74310;BME280;62722;51.142;17.052;2022-11-11T08:26:33;101912.66;;;8.74;85.32
74310;BME280;62722;51.142;17.052;2022-11-11T08:29:00;101913.44;;;8.78;85.15
74310;BME280;62722;51.142;17.052;2022-11-11T08:31:28;101920.34;;;8.80;85.10
74310;BME280;62722;51.142;17.052;2022-11-11T08:33:55;101927.16;;;8.88;84.77
74310;BME280;62722;51.142;17.052;2022-11-11T08:36:22;101931.47;;;8.90;84.68
74310;BME280;62722;51.142;17.052;2022-11-11T08:38:52;101938.19;;;8.99;84.18
74310;BME280;62722;51.142;17.052;2022-11-11T08:41:20;101937.25;;;9.01;84.16
74310;BME280;62722;51.142;17.052;2022-11-11T08:43:50;101938.09;;;9.02;84.21
74310;BME280;62722;51.142;17.052;2022-11-11T08:46:18;101936.19;;;9.07;83.92
74310;BME280;62722;51.142;17.052;2022-11-11T08:48:45;101933.44;;;9.10;83.97
74310;BME280;62722;51.142;17.052;2022-11-11T08:51:13;101928.16;;;9.10;84.05
74310;BME280;62722;51.142;17.052;2022-11-11T08:53:41;101927.16;;;9.14;83.49
74310;BME280;62722;51.142;17.052;2022-11-11T08:56:10;101914.81;;;9.16;83.54
74310;BME280;62722;51.142;17.052;2022-11-11T08:58:37;101913.81;;;9.20;83.30
74310;BME280;62722;51.142;17.052;2022-11-11T09:01:09;101934.78;;;9.23;84.27
74310;BME280;62722;51.142;17.052;2022-11-11T09:03:38;101924.00;;;9.29;83.03
74310;BME280;62722;51.142;17.052;2022-11-11T09:06:09;101928.28;;;9.33;83.16
74310;BME280;62722;51.142;17.052;2022-11-11T09:08:36;101928.16;;;9.36;83.59
74310;BME280;62722;51.142;17.052;2022-11-11T09:11:03;101926.25;;;9.41;83.24
74310;BME280;62722;51.142;17.052;2022-11-11T09:13:32;101926.00;;;9.47;82.44
74310;BME280;62722;51.142;17.052;2022-11-11T09:15:59;101929.28;;;9.54;82.24
74310;BME280;62722;51.142;17.052;2022-11-11T09:18:26;101935.28;;;9.59;82.42
74310;BME280;62722;51.142;17.052;2022-11-11T09:20:57;101943.03;;;9.63;82.93
74310;BME280;62722;51.142;17.052;2022-11-11T09:23:24;101936.63;;;9.70;81.75
74310;BME280;62722;51.142;17.052;2022-11-11T09:25:52;101946.03;;;9.77;81.81
74310;BME280;62722;51.142;17.052;2022-11-11T09:28:19;101945.88;;;9.82;81.08
74310;BME280;62722;51.142;17.052;2022-11-11T09:30:47;101944.66;;;9.91;80.83
74310;BME280;62722;51.142;17.052;2022-11-11T09:33:15;101943.53;;;9.98;80.58
74310;BME280;62722;51.142;17.052;2022-11-11T09:35:44;101935.53;;;10.01;81.14
74310;BME280;62722;51.142;17.052;2022-11-11T09:38:12;101943.22;;;10.07;80.57
74310;BME280;62722;51.142;17.052;2022-11-11T09:40:48;101945.69;;;10.11;80.78
74310;BME280;62722;51.142;17.052;2022-11-11T09:43:27;101936.69;;;10.17;80.03
74310;BME280;62722;51.142;17.052;2022-11-11T09:46:10;101939.13;;;10.23;80.22
74310;BME280;62722;51.142;17.052;2022-11-11T09:48:55;101937.28;;;10.25;80.49
74310;BME280;62722;51.142;17.052;2022-11-11T09:51:26;101931.84;;;10.30;80.47
74310;BME280;62722;51.142;17.052;2022-11-11T09:53:58;101930.81;;;10.34;80.48
74310;BME280;62722;51.142;17.052;2022-11-11T09:56:28;101923.50;;;10.40;79.67
74310;BME280;62722;51.142;17.052;2022-11-11T09:59:02;101916.44;;;10.41;80.02
74310;BME280;62722;51.142;17.052;2022-11-11T10:01:37;101913.72;;;10.42;80.40
74310;BME280;62722;51.142;17.052;2022-11-11T10:04:16;101920.53;;;10.49;79.89
74310;BME280;62722;51.142;17.052;2022-11-11T10:06:49;101918.66;;;10.51;80.24
74310;BME280;62722;51.142;17.052;2022-11-11T10:09:22;101922.81;;;10.57;80.62
74310;BME280;62722;51.142;17.052;2022-11-11T10:11:58;101921.75;;;10.62;80.33
74310;BME280;62722;51.142;17.052;2022-11-11T10:14:32;101921.41;;;10.71;78.79
74310;BME280;62722;51.142;17.052;2022-11-11T10:17:09;101926.47;;;10.76;79.23
74310;BME280;62722;51.142;17.052;2022-11-11T10:19:49;101923.47;;;10.85;78.05
74310;BME280;62722;51.142;17.052;2022-11-11T10:22:21;101928.50;;;10.91;77.05
74310;BME280;62722;51.142;17.052;2022-11-11T10:24:58;101917.69;;;10.97;77.67
74310;BME280;62722;51.142;17.052;2022-11-11T10:27:29;101926.47;;;10.98;78.68
74310;BME280;62722;51.142;17.052;2022-11-11T10:29:57;101914.78;;;11.03;77.63
74310;BME280;62722;51.142;17.052;2022-11-11T10:32:28;101906.88;;;11.03;77.98
74310;BME280;62722;51.142;17.052;2022-11-11T10:35:01;101912.06;;;11.05;77.99
74310;BME280;62722;51.142;17.052;2022-11-11T10:37:40;101916.13;;;11.13;78.09
74310;BME280;62722;51.142;17.052;2022-11-11T10:40:16;101916.06;;;11.15;78.35
74310;BME280;62722;51.142;17.052;2022-11-11T10:42:44;101914.81;;;11.23;76.85
74310;BME280;62722;51.142;17.052;2022-11-11T10:45:20;101913.84;;;11.26;76.30
74310;BME280;62722;51.142;17.052;2022-11-11T10:47:57;101902.13;;;11.32;76.14
74310;BME280;62722;51.142;17.052;2022-11-11T10:50:30;101906.31;;;11.37;77.10
74310;BME280;62722;51.142;17.052;2022-11-11T10:53:07;101900.47;;;11.49;75.57
74310;BME280;62722;51.142;17.052;2022-11-11T10:55:42;101898.63;;;11.51;74.74
74310;BME280;62722;51.142;17.052;2022-11-11T10:58:16;101902.06;;;11.53;76.32
74310;BME280;62722;51.142;17.052;2022-11-11T11:00:48;101891.50;;;11.53;74.10
74310;BME280;62722;51.142;17.052;2022-11-11T11:03:22;101896.59;;;11.58;73.60
74310;BME280;62722;51.142;17.052;2022-11-11T11:05:56;101897.97;;;11.66;74.29
74310;BME280;62722;51.142;17.052;2022-11-11T11:08:27;101892.69;;;11.66;74.44
74310;BME280;62722;51.142;17.052;2022-11-11T11:10:57;101905.78;;;11.69;74.61
74310;BME280;62722;51.142;17.052;2022-11-11T11:13:31;101904.00;;;11.70;74.67
74310;BME280;62722;51.142;17.052;2022-11-11T11:16:05;101894.28;;;11.70;74.56
74310;BME280;62722;51.142;17.052;2022-11-11T11:18:36;101887.00;;;11.76;72.58
74310;BME280;62722;51.142;17.052;2022-11-11T11:21:05;101902.63;;;11.82;72.56
74310;BME280;62722;51.142;17.052;2022-11-11T11:23:37;101897.03;;;11.88;72.19
74310;BME280;62722;51.142;17.052;2022-11-11T11:26:05;101890.63;;;11.93;72.45
74310;BME280;62722;51.142;17.052;2022-11-11T11:28:32;101887.19;;;11.91;74.07
74310;BME280;62722;51.142;17.052;2022-11-11T11:31:02;101882.69;;;11.93;72.23
74310;BME280;62722;51.142;17.052;2022-11-11T11:33:52;101889.78;;;11.93;72.06
74310;BME280;62722;51.142;17.052;2022-11-11T11:36:20;101887.19;;;11.91;73.01
74310;BME280;62722;51.142;17.052;2022-11-11T11:38:48;101894.09;;;11.94;71.77
74310;BME280;62722;51.142;17.052;2022-11-11T11:41:17;101900.22;;;11.96;72.25
74310;BME280;62722;51.142;17.052;2022-11-11T11:43:49;101887.91;;;11.95;71.25
74310;BME280;62722;51.142;17.052;2022-11-11T11:46:19;101890.41;;;11.98;71.46
74310;BME280;62722;51.142;17.052;2022-11-11T11:49:14;101885.91;;;12.00;72.37
74310;BME280;62722;51.142;17.052;2022-11-11T11:51:51;101875.97;;;12.05;71.89
74310;BME280;62722;51.142;17.052;2022-11-11T11:54:35;101880.31;;;12.06;71.26
74310;BME280;62722;51.142;17.052;2022-11-11T11:57:07;101881.13;;;12.08;71.79
74310;BME280;62722;51.142;17.052;2022-11-11T11:59:42;101879.81;;;12.16;70.18
74310;BME280;62722;51.142;17.052;2022-11-11T12:02:28;101879.97;;;12.13;71.83
74310;BME280;62722;51.142;17.052;2022-11-11T12:05:07;101876.47;;;12.13;71.74
74310;BME280;62722;51.142;17.052;2022-11-11T12:08:05;101880.06;;;12.12;72.01
74310;BME280;62722;51.142;17.052;2022-11-11T12:10:43;101880.06;;;12.12;71.44
74310;BME280;62722;51.142;17.052;2022-11-11T12:13:21;101878.03;;;12.17;71.37
74310;BME280;62722;51.142;17.052;2022-11-11T12:15:56;101880.44;;;12.23;70.72
74310;BME280;62722;51.142;17.052;2022-11-11T12:18:41;101872.34;;;12.26;71.77
74310;BME280;62722;51.142;17.052;2022-11-11T12:21:13;101890.06;;;12.24;72.58
74310;BME280;62722;51.142;17.052;2022-11-11T12:23:55;101884.34;;;12.33;70.04
74310;BME280;62722;51.142;17.052;2022-11-11T12:26:30;101864.84;;;12.34;69.91
74310;BME280;62722;51.142;17.052;2022-11-11T12:29:13;101862.97;;;12.38;69.90
74310;BME280;62722;51.142;17.052;2022-11-11T12:32:06;101861.13;;;12.38;70.92
74310;BME280;62722;51.142;17.052;2022-11-11T12:35:13;101861.03;;;12.41;71.08
74310;BME280;62722;51.142;17.052;2022-11-11T12:37:49;101850.28;;;12.44;70.35
74310;BME280;62722;51.142;17.052;2022-11-11T12:40:24;101843.31;;;12.42;71.04
74310;BME280;62722;51.142;17.052;2022-11-11T12:43:01;101837.97;;;12.43;69.53
74310;BME280;62722;51.142;17.052;2022-11-11T12:45:38;101842.13;;;12.49;69.32
74310;BME280;62722;51.142;17.052;2022-11-11T12:48:19;101847.47;;;12.47;69.44
74310;BME280;62722;51.142;17.052;2022-11-11T12:50:57;101852.94;;;12.44;69.75
74310;BME280;62722;51.142;17.052;2022-11-11T12:53:38;101866.38;;;12.40;70.81
74310;BME280;62722;51.142;17.052;2022-11-11T12:56:16;101861.13;;;12.38;69.92
74310;BME280;62722;51.142;17.052;2022-11-11T12:58:53;101871.88;;;12.35;70.72
74310;BME280;62722;51.142;17.052;2022-11-11T13:01:31;101865.00;;;12.31;70.66
74310;BME280;62722;51.142;17.052;2022-11-11T13:04:20;101859.66;;;12.33;69.31
74310;BME280;62722;51.142;17.052;2022-11-11T13:10:16;101855.84;;;12.38;67.78
74310;BME280;62722;51.142;17.052;2022-11-11T13:12:53;101854.16;;;12.37;67.59
74310;BME280;62722;51.142;17.052;2022-11-11T13:15:25;101854.00;;;12.40;67.35
74310;BME280;62722;51.142;17.052;2022-11-11T13:17:53;101847.63;;;12.44;66.80